Time;durP1;ratioP1;P1;durP2;ratioP2;P2;SDS_P1;SDS_P2;PMS_P1;PMS_P2;Temp;Humidity;BMP_temperature;BMP_pressure;BME280_temperature;BME280_humidity;BME280_pressure;Samples;Min_cycle;Max_cycle;Signal;HPM_P1;HPM_P2
2024/01/30 00:01:38;;;;;;;15.50;8.60;;;4.30;99.90;;;;;;5071152;28;20190;-75
2024/01/30 00:04:03;;;;;;;9.43;5.93;;;4.20;99.90;;;;;;5070654;28;20641;-75
2024/01/30 00:06:29;;;;;;;14.00;6.10;;;4.00;99.90;;;;;;5070231;28;20587;-76
2024/01/30 00:08:54;;;;;;;10.83;5.93;;;4.00;99.90;;;;;;5068778;28;20233;-76
2024/01/30 00:11:20;;;;;;;8.43;5.37;;;4.00;99.90;;;;;;5070166;28;20965;-75
2024/01/30 00:13:47;;;;;;;6.83;4.57;;;4.00;99.90;;;;;;5070020;28;20213;-75
2024/01/30 00:16:24;;;;;;;9.50;5.90;;;3.90;99.90;;;;;;5070126;28;20412;-75
2024/01/30 00:18:50;;;;;;;5.63;4.95;;;3.90;99.90;;;;;;5069696;28;20443;-75
2024/01/30 00:21:16;;;;;;;8.65;4.32;;;3.90;99.90;;;;;;5069907;28;20605;-73
2024/01/30 00:23:41;;;;;;;8.60;4.77;;;3.90;99.90;;;;;;5052001;28;20182;-73
2024/01/30 00:26:07;;;;;;;5.47;4.60;;;3.90;99.90;;;;;;5069995;28;20192;-73
2024/01/30 00:28:32;;;;;;;7.30;5.27;;;3.90;99.90;;;;;;5069906;28;20274;-76
2024/01/30 00:30:58;;;;;;;6.57;4.97;;;3.80;99.90;;;;;;5051922;28;20186;-75
2024/01/30 00:33:24;;;;;;;11.70;5.30;;;3.70;99.90;;;;;;5069799;28;20213;-75
2024/01/30 00:35:49;;;;;;;6.30;4.63;;;3.70;99.90;;;;;;5069736;28;20181;-76
2024/01/30 00:38:15;;;;;;;6.47;5.10;;;3.70;99.90;;;;;;5069693;28;20245;-74
2024/01/30 00:40:41;;;;;;;7.87;5.23;;;3.60;99.90;;;;;;5069764;28;20270;-74
2024/01/30 00:43:06;;;;;;;7.90;5.60;;;3.50;99.90;;;;;;5051686;28;20181;-74
2024/01/30 00:45:32;;;;;;;11.57;5.63;;;3.30;99.90;;;;;;5069650;28;20420;-74
2024/01/30 00:47:58;;;;;;;7.80;5.30;;;3.30;99.90;;;;;;5069550;28;20194;-74
2024/01/30 00:50:23;;;;;;;6.40;5.17;;;3.30;99.90;;;;;;5069505;28;20828;-74
2024/01/30 00:52:49;;;;;;;10.63;6.63;;;3.30;99.90;;;;;;5069296;28;20216;-75
2024/01/30 00:55:15;;;;;;;9.90;6.27;;;3.20;99.90;;;;;;5051602;28;20635;-75
2024/01/30 00:57:40;;;;;;;8.80;5.77;;;3.40;99.90;;;;;;5069210;28;20216;-76
2024/01/30 01:00:09;;;;;;;8.40;5.60;;;3.40;99.90;;;;;;5069177;28;20190;-75
2024/01/30 01:02:35;;;;;;;15.38;5.75;;;3.40;99.90;;;;;;5069144;28;20175;-75
2024/01/30 01:05:01;;;;;;;9.73;5.85;;;3.40;99.90;;;;;;5069189;28;20187;-76
2024/01/30 01:07:27;;;;;;;11.50;6.85;;;3.50;99.90;;;;;;5069053;28;20197;-75
2024/01/30 01:09:52;;;;;;;8.67;5.80;;;3.50;99.90;;;;;;5068839;28;20217;-75
2024/01/30 01:12:18;;;;;;;7.60;5.60;;;3.60;99.90;;;;;;5034209;28;20189;-76
2024/01/30 01:14:44;;;;;;;9.60;6.17;;;3.50;99.90;;;;;;5068835;28;20213;-75
2024/01/30 01:17:09;;;;;;;7.97;5.80;;;3.50;99.90;;;;;;5068894;28;20213;-76
2024/01/30 01:19:35;;;;;;;9.70;6.70;;;3.40;99.90;;;;;;5068135;28;20212;-75
2024/01/30 01:22:00;;;;;;;8.27;5.80;;;3.30;99.90;;;;;;5068451;28;20262;-76
2024/01/30 01:24:26;;;;;;;8.67;5.97;;;3.30;99.90;;;;;;5068452;28;20188;-76
2024/01/30 01:26:52;;;;;;;9.00;5.90;;;3.30;99.90;;;;;;5068349;28;20268;-75
2024/01/30 01:29:17;;;;;;;8.70;4.53;;;3.40;99.90;;;;;;5068464;28;20737;-75
2024/01/30 01:31:43;;;;;;;7.80;5.37;;;3.40;99.90;;;;;;5068349;28;20590;-75
2024/01/30 01:34:10;;;;;;;10.10;5.37;;;3.50;99.90;;;;;;5068218;28;20315;-74
2024/01/30 01:36:35;;;;;;;10.00;5.60;;;3.50;99.90;;;;;;5068008;28;20182;-76
2024/01/30 01:39:02;;;;;;;11.53;5.63;;;3.60;99.90;;;;;;5068218;28;20855;-75
2024/01/30 01:41:34;;;;;;;6.45;4.93;;;3.60;99.90;;;;;;5050276;28;20182;-74
2024/01/30 01:44:00;;;;;;;8.05;5.20;;;3.50;99.90;;;;;;5068190;28;20272;-73
2024/01/30 01:46:33;;;;;;;7.20;5.20;;;3.40;99.90;;;;;;5068207;28;20257;-75
2024/01/30 01:48:59;;;;;;;9.40;5.88;;;3.40;99.90;;;;;;5068033;28;20875;-76
2024/01/30 01:51:27;;;;;;;11.85;5.70;;;3.40;99.90;;;;;;5068087;28;20703;-76
2024/01/30 01:53:54;;;;;;;4.80;4.00;;;3.40;99.90;;;;;;5049616;28;20223;-75
2024/01/30 01:56:21;;;;;;;5.60;4.10;;;3.40;99.90;;;;;;5033618;28;20185;-76
2024/01/30 01:58:47;;;;;;;7.70;4.47;;;3.40;99.90;;;;;;5068152;28;20213;-75
2024/01/30 02:01:14;;;;;;;5.75;4.70;;;3.50;99.90;;;;;;5068534;28;20226;-75
2024/01/30 02:03:40;;;;;;;6.28;4.45;;;3.60;99.90;;;;;;5068072;28;20209;-75
2024/01/30 02:06:06;;;;;;;4.60;3.73;;;3.70;99.90;;;;;;5068032;28;20267;-75
2024/01/30 02:08:32;;;;;;;3.43;2.93;;;3.90;99.90;;;;;;5068023;28;20459;-75
2024/01/30 02:10:58;;;;;;;3.23;2.93;;;4.30;99.90;;;;;;5068074;28;20191;-74
2024/01/30 02:13:23;;;;;;;6.67;4.30;;;4.50;99.90;;;;;;5067988;28;20503;-74
2024/01/30 02:15:50;;;;;;;6.10;4.13;;;4.50;99.90;;;;;;5049918;28;20425;-74
2024/01/30 02:18:16;;;;;;;6.10;3.90;;;4.40;99.90;;;;;;5049948;28;20193;-74
2024/01/30 02:20:43;;;;;;;9.33;4.80;;;4.20;99.90;;;;;;5049824;28;20556;-75
2024/01/30 02:23:10;;;;;;;8.00;3.77;;;4.20;99.90;;;;;;5049689;28;20239;-74
2024/01/30 02:25:46;;;;;;;5.72;3.72;;;4.10;99.90;;;;;;5068092;28;20421;-74
2024/01/30 02:28:14;;;;;;;6.53;3.92;;;4.00;99.90;;;;;;5067780;28;20214;-74
2024/01/30 02:30:42;;;;;;;4.70;4.20;;;3.90;99.90;;;;;;5067860;28;20206;-74
2024/01/30 02:33:08;;;;;;;6.05;4.03;;;3.90;99.90;;;;;;5070568;28;20759;-73
2024/01/30 02:35:34;;;;;;;5.20;3.50;;;3.90;99.90;;;;;;5053314;28;20189;-73
2024/01/30 02:37:59;;;;;;;5.27;4.43;;;3.80;99.90;;;;;;5071559;28;20293;-74
2024/01/30 02:40:25;;;;;;;6.07;4.03;;;3.90;99.90;;;;;;5071445;28;20441;-74
2024/01/30 02:42:51;;;;;;;9.27;3.53;;;3.80;99.90;;;;;;5071411;28;20192;-74
2024/01/30 02:45:17;;;;;;;5.47;3.63;;;3.80;99.90;;;;;;5071378;28;20892;-74
2024/01/30 02:47:42;;;;;;;3.80;3.10;;;3.80;99.90;;;;;;5071152;28;20271;-74
2024/01/30 02:50:08;;;;;;;3.97;3.50;;;3.80;99.90;;;;;;5071421;28;20425;-74
2024/01/30 02:52:34;;;;;;;7.33;3.70;;;3.70;99.90;;;;;;5071484;28;20189;-73
2024/01/30 02:55:00;;;;;;;5.73;3.60;;;3.60;99.90;;;;;;5071080;28;20859;-73
2024/01/30 02:57:25;;;;;;;7.37;3.50;;;3.60;99.90;;;;;;5071116;28;20185;-74
2024/01/30 02:59:52;;;;;;;6.43;3.50;;;3.50;99.90;;;;;;5070913;28;20216;-74
2024/01/30 03:02:17;;;;;;;5.47;3.30;;;3.50;99.90;;;;;;5053196;28;20186;-73
2024/01/30 03:04:43;;;;;;;5.40;3.83;;;3.50;99.90;;;;;;5070983;28;20849;-73
2024/01/30 03:07:09;;;;;;;5.57;3.40;;;3.50;99.90;;;;;;5071172;28;20649;-73
2024/01/30 03:09:36;;;;;;;7.90;3.53;;;3.40;99.90;;;;;;5070760;28;20746;-74
2024/01/30 03:12:01;;;;;;;7.68;4.40;;;3.40;99.90;;;;;;5052492;28;20463;-74
2024/01/30 03:14:27;;;;;;;3.80;3.03;;;3.30;99.90;;;;;;5071158;28;20311;-74
2024/01/30 03:16:52;;;;;;;3.27;2.77;;;3.30;99.90;;;;;;5070764;28;20198;-74
2024/01/30 03:19:18;;;;;;;5.07;2.70;;;3.30;99.90;;;;;;5070720;28;20786;-74
2024/01/30 03:21:44;;;;;;;9.03;2.63;;;3.40;99.90;;;;;;5070693;28;20177;-74
2024/01/30 03:24:10;;;;;;;5.30;3.37;;;3.60;99.90;;;;;;5070667;28;20185;-73
2024/01/30 03:26:36;;;;;;;9.60;2.87;;;3.60;99.90;;;;;;5070797;28;20202;-75
2024/01/30 03:29:01;;;;;;;2.70;2.37;;;3.50;99.90;;;;;;5070434;28;20530;-75
2024/01/30 03:31:27;;;;;;;7.53;3.20;;;3.40;99.90;;;;;;5070438;28;20188;-76
2024/01/30 03:33:52;;;;;;;5.03;3.50;;;3.30;99.90;;;;;;5070369;28;20263;-75
2024/01/30 03:36:18;;;;;;;5.03;4.10;;;3.30;99.90;;;;;;5070276;28;20184;-74
2024/01/30 03:38:44;;;;;;;6.20;4.07;;;3.30;99.90;;;;;;5052178;28;20229;-74
2024/01/30 03:41:10;;;;;;;6.63;4.00;;;3.30;99.90;;;;;;5052165;28;20185;-74
2024/01/30 03:43:36;;;;;;;8.53;4.30;;;3.30;99.90;;;;;;5070002;28;20185;-74
2024/01/30 03:46:02;;;;;;;4.87;3.73;;;3.30;99.90;;;;;;5070451;28;20456;-75
2024/01/30 03:48:28;;;;;;;7.40;4.50;;;3.30;99.90;;;;;;5051933;28;20917;-77
2024/01/30 03:50:54;;;;;;;8.50;4.43;;;3.20;99.90;;;;;;5070804;28;20211;-77
2024/01/30 03:53:19;;;;;;;5.90;4.00;;;3.30;99.90;;;;;;5070050;28;21028;-75
2024/01/30 03:55:45;;;;;;;6.83;4.80;;;3.30;99.90;;;;;;5070321;28;20604;-77
2024/01/30 03:58:11;;;;;;;6.17;5.10;;;3.30;99.90;;;;;;5035604;28;20223;-74
2024/01/30 04:00:36;;;;;;;8.03;4.93;;;3.20;99.90;;;;;;5070794;28;20184;-74
2024/01/30 04:03:02;;;;;;;7.60;5.50;;;3.10;99.90;;;;;;5069890;28;20622;-76
2024/01/30 04:05:28;;;;;;;9.20;5.00;;;3.10;99.90;;;;;;5069848;28;20825;-76
2024/01/30 04:07:53;;;;;;;8.60;5.70;;;3.00;99.90;;;;;;5051658;28;20422;-76
2024/01/30 04:10:19;;;;;;;8.17;5.47;;;3.00;99.90;;;;;;5051603;28;20185;-76
2024/01/30 04:12:45;;;;;;;8.93;5.27;;;3.00;99.90;;;;;;5018394;28;20192;-76
2024/01/30 04:15:10;;;;;;;10.80;7.07;;;2.90;99.90;;;;;;5069672;28;20557;-76
2024/01/30 04:17:36;;;;;;;10.03;6.50;;;3.00;99.90;;;;;;5051393;28;20196;-76
2024/01/30 04:20:01;;;;;;;8.30;6.27;;;2.90;99.90;;;;;;5051347;28;20267;-76
2024/01/30 04:22:27;;;;;;;6.97;6.20;;;2.80;99.90;;;;;;5069488;28;20270;-76
2024/01/30 04:24:53;;;;;;;6.43;5.20;;;2.80;99.90;;;;;;5069514;28;20650;-76
2024/01/30 04:27:18;;;;;;;7.50;5.43;;;2.70;99.90;;;;;;5069374;28;20261;-76
2024/01/30 04:29:44;;;;;;;6.27;5.23;;;2.60;99.90;;;;;;5069259;28;20243;-76
2024/01/30 04:32:10;;;;;;;6.73;5.63;;;2.50;99.90;;;;;;5052781;28;20181;-76
2024/01/30 04:34:36;;;;;;;8.50;5.60;;;2.50;99.90;;;;;;5069258;28;20687;-76
2024/01/30 04:37:02;;;;;;;6.95;4.80;;;2.40;99.90;;;;;;5051091;28;21022;-76
2024/01/30 04:39:28;;;;;;;4.80;4.37;;;2.40;99.90;;;;;;5050897;28;20220;-75
2024/01/30 04:41:53;;;;;;;9.73;5.47;;;2.40;99.90;;;;;;5051442;28;20547;-76
2024/01/30 04:44:19;;;;;;;9.10;5.70;;;2.40;99.90;;;;;;5069126;28;20191;-76
2024/01/30 04:46:45;;;;;;;8.37;5.27;;;2.40;99.90;;;;;;5051586;28;20680;-77
2024/01/30 04:49:10;;;;;;;11.00;6.60;;;2.40;99.90;;;;;;5051387;28;20210;-75
2024/01/30 04:51:39;;;;;;;9.60;6.57;;;2.30;99.90;;;;;;5069160;28;20192;-75
2024/01/30 04:54:05;;;;;;;11.20;7.43;;;2.40;99.90;;;;;;5050637;28;20219;-75
2024/01/30 04:56:31;;;;;;;14.40;6.80;;;2.30;99.90;;;;;;5069075;28;20813;-75
2024/01/30 04:58:57;;;;;;;8.68;6.03;;;2.30;99.90;;;;;;5069158;28;20207;-75
2024/01/30 05:01:22;;;;;;;9.73;6.03;;;2.30;99.90;;;;;;5068948;28;20192;-75
2024/01/30 05:03:48;;;;;;;9.37;5.20;;;2.30;99.90;;;;;;5069038;28;20196;-75
2024/01/30 05:06:24;;;;;;;5.87;4.00;;;2.40;99.90;;;;;;5068913;28;20275;-74
2024/01/30 05:08:49;;;;;;;9.35;4.47;;;2.50;99.90;;;;;;5050815;28;20202;-74
2024/01/30 05:11:15;;;;;;;7.20;5.37;;;2.60;99.90;;;;;;5067888;28;20212;-74
2024/01/30 05:13:41;;;;;;;9.00;6.20;;;2.80;99.90;;;;;;5049434;28;20215;-74
2024/01/30 05:16:06;;;;;;;6.93;5.20;;;2.80;99.90;;;;;;5049528;28;20659;-74
2024/01/30 05:18:32;;;;;;;7.20;4.87;;;2.90;99.90;;;;;;5067486;28;20212;-75
2024/01/30 05:20:57;;;;;;;8.63;6.93;;;2.80;99.90;;;;;;5067570;28;20274;-75
2024/01/30 05:23:23;;;;;;;5.63;5.03;;;2.70;99.90;;;;;;5068366;28;20184;-73
2024/01/30 05:25:49;;;;;;;5.10;4.20;;;2.50;99.90;;;;;;5033330;28;20190;-75
2024/01/30 05:28:14;;;;;;;7.53;5.00;;;2.50;99.90;;;;;;5067511;28;20272;-75
2024/01/30 05:30:40;;;;;;;8.10;4.80;;;2.60;99.90;;;;;;5067937;28;20249;-74
2024/01/30 05:33:05;;;;;;;7.67;5.50;;;2.70;99.90;;;;;;5067705;28;20268;-75
2024/01/30 05:35:31;;;;;;;7.30;4.97;;;2.70;99.90;;;;;;5067915;28;20191;-75
2024/01/30 05:37:56;;;;;;;15.30;5.27;;;2.70;99.90;;;;;;5067827;28;20197;-74
2024/01/30 05:40:22;;;;;;;7.40;5.57;;;2.70;99.90;;;;;;5068470;28;20585;-75
2024/01/30 05:42:48;;;;;;;7.40;5.37;;;2.70;99.90;;;;;;5049740;28;20185;-75
2024/01/30 05:45:14;;;;;;;7.43;5.20;;;2.70;99.90;;;;;;5049664;28;20421;-75
2024/01/30 05:47:39;;;;;;;7.97;5.13;;;2.80;99.90;;;;;;5049537;28;20660;-75
2024/01/30 05:50:06;;;;;;;7.73;5.57;;;2.70;99.90;;;;;;5049919;28;20270;-75
2024/01/30 05:52:31;;;;;;;7.82;4.95;;;2.70;99.90;;;;;;5067602;28;20207;-75
2024/01/30 05:54:57;;;;;;;9.50;7.37;;;2.70;99.90;;;;;;5067544;28;20442;-75
2024/01/30 05:57:22;;;;;;;7.87;5.30;;;2.60;99.90;;;;;;5067412;28;20197;-75
2024/01/30 05:59:48;;;;;;;6.70;5.30;;;2.60;99.90;;;;;;5067618;28;20206;-75
2024/01/30 06:02:14;;;;;;;13.60;5.40;;;2.60;99.90;;;;;;5067323;28;20177;-75
2024/01/30 06:04:40;;;;;;;8.40;5.60;;;2.60;99.90;;;;;;5067220;28;20582;-75
2024/01/30 06:07:06;;;;;;;7.53;5.40;;;2.60;99.90;;;;;;5070223;28;20422;-75
2024/01/30 06:09:32;;;;;;;9.45;5.43;;;2.70;99.90;;;;;;5071084;28;20200;-75
2024/01/30 06:11:58;;;;;;;6.40;4.87;;;2.70;99.90;;;;;;5071051;28;20210;-75
2024/01/30 06:14:23;;;;;;;6.80;4.67;;;2.70;99.90;;;;;;5070956;28;21009;-75
2024/01/30 06:16:49;;;;;;;6.20;5.00;;;2.70;99.90;;;;;;5070948;28;20832;-75
2024/01/30 06:19:15;;;;;;;6.17;4.90;;;2.70;99.90;;;;;;5070713;28;20286;-75
2024/01/30 06:21:41;;;;;;;7.93;5.20;;;2.70;99.90;;;;;;5070643;28;20461;-75
2024/01/30 06:24:06;;;;;;;10.10;5.83;;;2.60;99.90;;;;;;5053365;28;20822;-75
2024/01/30 06:26:32;;;;;;;8.70;5.67;;;2.60;99.90;;;;;;5053219;28;20214;-75
2024/01/30 06:28:58;;;;;;;7.77;5.50;;;2.70;99.90;;;;;;5071372;28;20711;-75
2024/01/30 06:31:23;;;;;;;7.67;5.53;;;2.60;99.90;;;;;;5071131;28;20268;-75
2024/01/30 06:33:49;;;;;;;10.73;6.10;;;2.60;99.90;;;;;;5071304;28;20212;-75
2024/01/30 06:36:15;;;;;;;12.55;6.07;;;2.60;99.90;;;;;;5070806;28;20216;-74
2024/01/30 06:38:41;;;;;;;7.80;5.97;;;2.50;99.90;;;;;;5036041;28;20289;-74
2024/01/30 06:41:07;;;;;;;9.67;6.73;;;2.60;99.90;;;;;;5052628;28;20627;-75
2024/01/30 06:43:33;;;;;;;14.93;8.23;;;2.50;99.90;;;;;;5070657;28;20423;-74
2024/01/30 06:45:59;;;;;;;10.33;6.53;;;2.50;99.90;;;;;;5070245;28;20179;-75
2024/01/30 06:48:25;;;;;;;10.20;6.53;;;2.40;99.90;;;;;;5070259;28;20539;-75
2024/01/30 06:50:53;;;;;;;7.23;5.87;;;2.30;99.90;;;;;;5052336;28;20232;-74
2024/01/30 06:53:19;;;;;;;7.60;5.22;;;2.30;99.90;;;;;;5070321;28;20476;-74
2024/01/30 06:55:45;;;;;;;9.02;5.80;;;2.30;99.90;;;;;;5070073;28;20192;-75
2024/01/30 06:58:11;;;;;;;7.20;5.50;;;2.40;99.90;;;;;;5069890;28;20196;-75
2024/01/30 07:00:37;;;;;;;6.90;5.93;;;2.30;99.90;;;;;;5051134;28;20189;-75
2024/01/30 07:03:02;;;;;;;9.00;6.80;;;2.40;99.90;;;;;;5051873;28;20180;-75
2024/01/30 07:05:28;;;;;;;8.70;4.93;;;2.40;99.90;;;;;;5069642;28;20420;-75
2024/01/30 07:07:53;;;;;;;6.27;4.63;;;2.50;99.90;;;;;;5069883;28;20263;-75
2024/01/30 07:10:19;;;;;;;6.87;5.73;;;2.50;99.90;;;;;;5051412;28;20552;-75
2024/01/30 07:12:45;;;;;;;6.13;5.33;;;2.60;99.90;;;;;;5069720;28;20180;-75
2024/01/30 07:15:10;;;;;;;12.20;5.47;;;2.60;99.90;;;;;;5069544;28;20216;-74
2024/01/30 07:17:37;;;;;;;6.50;5.27;;;2.70;99.90;;;;;;5068945;28;20286;-74
2024/01/30 07:20:06;;;;;;;7.43;5.53;;;2.70;99.90;;;;;;5051608;28;20207;-75
2024/01/30 07:22:33;;;;;;;10.05;6.28;;;2.70;99.90;;;;;;5050842;28;20544;-74
2024/01/30 07:24:58;;;;;;;6.70;5.60;;;2.80;99.90;;;;;;5069557;28;20189;-75
2024/01/30 07:27:24;;;;;;;7.80;5.57;;;2.90;99.90;;;;;;5069151;28;20265;-75
2024/01/30 07:29:50;;;;;;;8.23;5.90;;;2.90;99.90;;;;;;5069305;28;20209;-74
2024/01/30 07:32:15;;;;;;;7.40;5.70;;;3.00;99.90;;;;;;5069009;28;20183;-74
2024/01/30 07:34:41;;;;;;;5.73;5.13;;;3.10;99.90;;;;;;5069032;28;20219;-74
2024/01/30 07:37:08;;;;;;;11.73;5.50;;;3.20;99.90;;;;;;5069142;28;20657;-74
2024/01/30 07:39:34;;;;;;;7.68;5.65;;;3.30;99.90;;;;;;5069315;28;20207;-74
2024/01/30 07:42:00;;;;;;;8.27;5.80;;;3.50;99.90;;;;;;5069267;28;20175;-75
2024/01/30 07:44:25;;;;;;;5.63;5.07;;;3.70;99.90;;;;;;5068899;28;20648;-74
2024/01/30 07:46:51;;;;;;;9.33;5.90;;;4.00;99.90;;;;;;5069123;28;20699;-75
2024/01/30 07:49:17;;;;;;;10.90;7.80;;;4.10;99.90;;;;;;5050634;28;20204;-75
2024/01/30 07:51:43;;;;;;;7.40;5.37;;;4.30;99.90;;;;;;5068961;28;20186;-75
2024/01/30 07:54:08;;;;;;;13.00;5.60;;;4.40;99.90;;;;;;5068946;28;20304;-75
2024/01/30 07:56:34;;;;;;;9.17;5.90;;;4.50;99.90;;;;;;5069139;28;20531;-75
2024/01/30 07:59:00;;;;;;;7.77;5.30;;;4.70;99.90;;;;;;5068845;28;20209;-74
2024/01/30 08:01:25;;;;;;;9.43;6.40;;;5.00;99.90;;;;;;5068765;28;20251;-75
2024/01/30 08:03:51;;;;;;;10.93;7.00;;;5.00;99.90;;;;;;5068742;28;20585;-75
2024/01/30 08:06:17;;;;;;;12.43;9.03;;;5.00;99.90;;;;;;5050631;28;20199;-75
2024/01/30 08:08:42;;;;;;;13.30;8.70;;;5.10;99.90;;;;;;5068458;28;20284;-74
2024/01/30 08:11:08;;;;;;;9.83;8.17;;;5.10;99.90;;;;;;5068754;28;20918;-75
2024/01/30 08:13:34;;;;;;;12.77;8.20;;;5.20;99.90;;;;;;5068536;28;20216;-75
2024/01/30 08:15:59;;;;;;;21.50;10.27;;;5.20;99.90;;;;;;5033638;28;20186;-75
2024/01/30 08:18:25;;;;;;;13.30;9.00;;;5.30;99.90;;;;;;5068246;28;20203;-75
2024/01/30 08:20:50;;;;;;;10.37;8.90;;;5.50;99.90;;;;;;5069179;28;20667;-75
2024/01/30 08:23:16;;;;;;;14.17;8.80;;;5.70;99.90;;;;;;5039192;28;20566;-74
2024/01/30 08:25:42;;;;;;;12.07;8.03;;;5.90;99.90;;;;;;5052861;28;20282;-74
2024/01/30 08:28:07;;;;;;;14.57;8.80;;;6.00;99.90;;;;;;5070586;28;20203;-75
2024/01/30 08:30:33;;;;;;;18.70;9.67;;;6.30;99.90;;;;;;5067068;28;20194;-75
2024/01/30 08:32:59;;;;;;;14.23;10.60;;;6.70;99.90;;;;;;5068410;28;20673;-76
2024/01/30 08:35:24;;;;;;;14.77;9.17;;;7.30;99.90;;;;;;5067886;28;20666;-76
2024/01/30 08:37:50;;;;;;;12.90;9.73;;;8.20;99.90;;;;;;5033033;28;20194;-77
2024/01/30 08:40:16;;;;;;;12.37;7.47;;;8.90;99.90;;;;;;5049859;28;20183;-76
2024/01/30 08:42:41;;;;;;;11.73;8.90;;;9.90;99.90;;;;;;5049555;28;20219;-74
2024/01/30 08:45:08;;;;;;;12.53;9.30;;;10.80;99.90;;;;;;5067815;28;20207;-74
2024/01/30 08:47:33;;;;;;;11.33;8.90;;;12.00;99.90;;;;;;5067898;28;20178;-75
2024/01/30 08:49:59;;;;;;;15.40;7.60;;;12.90;97.30;;;;;;5067824;28;20496;-75
2024/01/30 08:52:25;;;;;;;2.57;1.60;;;13.70;93.50;;;;;;5049779;28;20185;-75
2024/01/30 08:54:50;;;;;;;8.50;5.27;;;14.10;74.00;;;;;;5067613;28;20304;-75
2024/01/30 08:57:16;;;;;;;18.70;10.20;;;14.40;79.70;;;;;;5067622;28;20187;-76
2024/01/30 08:59:44;;;;;;;14.80;10.57;;;15.00;82.10;;;;;;5049408;28;20739;-76
2024/01/30 09:02:10;;;;;;;2.60;2.40;;;15.80;81.10;;;;;;5049861;28;20183;-74
2024/01/30 09:04:35;;;;;;;2.53;1.70;;;16.20;72.50;;;;;;5049581;28;20781;-76
2024/01/30 09:07:01;;;;;;;1.13;1.00;;;16.90;64.80;;;;;;5067736;28;20190;-76
2024/01/30 09:09:26;;;;;;;1.20;1.03;;;17.20;63.70;;;;;;5067304;28;20195;-76
2024/01/30 09:11:52;;;;;;;2.47;1.87;;;17.80;62.60;;;;;;5067561;28;20183;-75
2024/01/30 09:14:18;;;;;;;3.20;1.30;;;18.40;61.80;;;;;;5049401;28;20932;-76
2024/01/30 09:16:43;;;;;;;2.80;1.00;;;18.30;55.90;;;;;;5067797;28;20233;-75
2024/01/30 09:19:09;;;;;;;3.03;1.03;;;18.70;58.80;;;;;;5067421;28;20206;-75
2024/01/30 09:21:34;;;;;;;2.97;1.47;;;18.90;59.30;;;;;;5067186;28;20181;-75
2024/01/30 09:24:03;;;;;;;2.00;1.57;;;18.60;57.70;;;;;;5049210;28;20189;-75
2024/01/30 09:26:29;;;;;;;2.23;1.40;;;18.50;58.20;;;;;;5049320;28;20187;-76
2024/01/30 09:28:55;;;;;;;1.20;1.00;;;18.50;56.60;;;;;;5068382;28;21008;-74
2024/01/30 09:31:20;;;;;;;2.37;1.63;;;17.80;55.40;;;;;;5067997;28;20249;-75
2024/01/30 09:33:47;;;;;;;1.27;1.17;;;18.30;56.30;;;;;;5033238;28;20214;-76
2024/01/30 09:36:15;;;;;;;2.53;1.57;;;18.30;55.10;;;;;;5067800;28;20182;-75
2024/01/30 09:38:41;;;;;;;1.40;1.07;;;17.90;53.80;;;;;;5067878;28;20463;-75
2024/01/30 09:41:13;;;;;;;7.57;3.80;;;17.90;56.60;;;;;;5066926;28;20467;-75
2024/01/30 09:43:42;;;;;;;6.30;4.27;;;17.40;55.90;;;;;;5067541;28;20509;-74
2024/01/30 09:46:13;;;;;;;5.23;3.93;;;17.40;58.90;;;;;;5067317;28;20435;-76
2024/01/30 09:48:41;;;;;;;5.17;2.43;;;17.40;58.20;;;;;;5066907;28;20466;-76
2024/01/30 09:51:08;;;;;;;1.70;1.53;;;17.50;57.50;;;;;;5067517;28;20438;-75
2024/01/30 09:53:35;;;;;;;3.97;2.30;;;17.90;57.10;;;;;;5067659;28;20467;-76
2024/01/30 09:56:02;;;;;;;5.70;4.77;;;19.20;58.40;;;;;;5067602;28;20527;-75
2024/01/30 09:58:28;;;;;;;10.17;5.57;;;19.80;59.00;;;;;;5032604;28;20799;-76
2024/01/30 10:00:54;;;;;;;17.60;10.17;;;20.30;58.70;;;;;;5032333;28;20435;-75
2024/01/30 10:03:19;;;;;;;9.60;5.60;;;20.20;61.50;;;;;;5067179;28;20185;-75
2024/01/30 10:05:54;;;;;;;6.07;5.40;;;19.90;60.10;;;;;;5067213;28;20193;-75
2024/01/30 10:08:19;;;;;;;10.00;7.00;;;19.50;59.40;;;;;;5067034;28;20670;-75
2024/01/30 10:10:47;;;;;;;3.07;2.00;;;18.40;60.60;;;;;;5072625;28;20429;-75
2024/01/30 10:13:12;;;;;;;10.17;6.47;;;18.00;55.10;;;;;;5067697;28;20230;-75
2024/01/30 10:15:38;;;;;;;18.87;12.40;;;17.50;61.20;;;;;;5067757;28;20815;-75
2024/01/30 10:18:06;;;;;;;17.97;11.10;;;16.40;66.20;;;;;;5067609;28;20212;-75
2024/01/30 10:20:32;;;;;;;21.20;11.27;;;15.30;67.30;;;;;;5067557;28;20415;-75
2024/01/30 10:22:58;;;;;;;26.87;14.47;;;14.70;68.40;;;;;;5067756;28;20422;-75
2024/01/30 10:25:25;;;;;;;19.73;11.37;;;14.40;70.80;;;;;;5049715;28;20784;-75
2024/01/30 10:27:55;;;;;;;18.37;12.43;;;14.10;71.50;;;;;;5068115;28;20430;-75
2024/01/30 10:30:23;;;;;;;21.13;14.50;;;14.30;73.10;;;;;;5033629;28;20441;-74
2024/01/30 10:32:49;;;;;;;26.70;14.00;;;14.10;77.50;;;;;;5050071;28;20430;-75
2024/01/30 10:35:15;;;;;;;18.27;12.07;;;13.90;77.50;;;;;;5068073;28;20461;-74
2024/01/30 10:37:43;;;;;;;13.20;9.70;;;13.90;80.60;;;;;;5067843;28;20449;-75
2024/01/30 10:40:13;;;;;;;19.83;11.90;;;13.80;79.90;;;;;;5068050;28;20499;-74
2024/01/30 10:42:44;;;;;;;21.17;13.03;;;13.30;81.40;;;;;;5067953;28;20433;-74
2024/01/30 10:45:15;;;;;;;26.27;17.87;;;13.60;78.00;;;;;;5049821;28;21001;-75
2024/01/30 10:47:48;;;;;;;19.73;11.13;;;13.60;83.20;;;;;;5067908;28;20429;-75
2024/01/30 10:50:14;;;;;;;26.50;13.57;;;13.00;86.30;;;;;;5067910;28;20499;-75
2024/01/30 10:52:42;;;;;;;17.17;10.60;;;12.70;90.60;;;;;;5050918;28;20427;-75
2024/01/30 10:55:08;;;;;;;18.80;10.40;;;12.60;91.80;;;;;;5072228;28;20488;-75
2024/01/30 10:57:37;;;;;;;23.70;10.50;;;12.60;90.30;;;;;;5071546;28;20423;-75
2024/01/30 11:00:15;;;;;;;19.20;10.37;;;12.50;92.10;;;;;;5071378;28;20427;-75
2024/01/30 11:02:46;;;;;;;12.27;7.00;;;12.80;92.30;;;;;;5071405;28;20975;-75
2024/01/30 11:05:12;;;;;;;5.83;2.80;;;12.90;91.30;;;;;;5053656;28;20424;-75
2024/01/30 11:07:41;;;;;;;3.50;2.20;;;13.20;79.70;;;;;;5071431;28;20520;-75
2024/01/30 11:10:09;;;;;;;3.53;1.80;;;13.50;74.10;;;;;;5053707;28;20435;-75
2024/01/30 11:12:43;;;;;;;6.70;3.27;;;13.70;69.50;;;;;;5071625;28;20430;-75
2024/01/30 11:15:13;;;;;;;3.93;2.37;;;13.90;74.80;;;;;;5054049;28;20485;-75
2024/01/30 11:17:40;;;;;;;3.37;2.77;;;14.00;72.10;;;;;;5070746;28;20534;-75
2024/01/30 11:20:10;;;;;;;6.03;3.10;;;14.20;72.90;;;;;;5070786;28;20920;-75
2024/01/30 11:22:36;;;;;;;4.50;2.20;;;14.40;71.50;;;;;;5070959;28;20416;-74
2024/01/30 11:25:03;;;;;;;3.93;2.13;;;14.60;67.30;;;;;;5071051;28;20431;-75
2024/01/30 11:27:31;;;;;;;4.43;1.73;;;14.60;61.80;;;;;;5071036;28;20449;-75
2024/01/30 11:30:02;;;;;;;4.57;2.80;;;14.80;64.80;;;;;;5071231;28;20795;-74
2024/01/30 11:32:28;;;;;;;2.47;2.17;;;14.70;63.20;;;;;;5072244;28;20972;-74
2024/01/30 11:34:54;;;;;;;2.40;2.00;;;14.70;63.40;;;;;;5053352;28;20556;-75
2024/01/30 11:37:21;;;;;;;1.73;1.63;;;14.60;61.60;;;;;;5071615;28;20209;-75
2024/01/30 11:39:48;;;;;;;2.27;1.40;;;14.70;64.90;;;;;;5071565;28;20437;-74
2024/01/30 11:42:14;;;;;;;4.30;1.90;;;14.70;64.40;;;;;;5071742;28;20421;-74
2024/01/30 11:44:40;;;;;;;2.27;1.77;;;14.50;64.00;;;;;;5053800;28;20828;-75
2024/01/30 11:47:06;;;;;;;2.20;2.00;;;14.60;64.00;;;;;;5053444;28;20417;-74
2024/01/30 11:49:31;;;;;;;17.80;2.80;;;14.50;63.80;;;;;;5052735;28;20591;-74
2024/01/30 11:51:57;;;;;;;5.43;2.27;;;14.40;64.90;;;;;;5071929;28;20213;-74
2024/01/30 11:54:23;;;;;;;3.43;2.33;;;14.20;64.20;;;;;;5071647;28;20222;-74
2024/01/30 11:56:48;;;;;;;2.37;2.17;;;14.10;67.00;;;;;;5071102;28;20416;-74
2024/01/30 11:59:14;;;;;;;2.60;2.10;;;13.80;63.50;;;;;;5070394;28;20210;-74
2024/01/30 12:01:40;;;;;;;3.10;1.60;;;13.50;64.30;;;;;;5070378;28;20264;-75
2024/01/30 12:04:09;;;;;;;2.10;1.77;;;13.30;65.00;;;;;;5070019;28;20245;-75
2024/01/30 12:06:34;;;;;;;3.53;2.30;;;13.20;65.50;;;;;;5070217;28;20182;-74
2024/01/30 12:09:04;;;;;;;3.60;2.00;;;13.20;65.70;;;;;;5052384;28;20453;-74
2024/01/30 12:11:30;;;;;;;2.50;1.90;;;13.30;67.30;;;;;;5070392;28;20227;-74
2024/01/30 12:13:56;;;;;;;2.70;2.10;;;13.30;67.30;;;;;;5070103;28;20476;-74
2024/01/30 12:16:22;;;;;;;2.53;1.80;;;13.30;65.20;;;;;;5052135;28;20565;-75
2024/01/30 12:18:48;;;;;;;2.07;1.87;;;13.20;63.50;;;;;;5070504;28;20559;-74
2024/01/30 12:21:17;;;;;;;3.23;1.63;;;13.20;65.60;;;;;;5070449;28;20654;-74
2024/01/30 12:23:43;;;;;;;2.43;2.20;;;13.30;67.10;;;;;;5070393;28;20417;-74
2024/01/30 12:26:10;;;;;;;2.77;1.77;;;13.30;68.00;;;;;;5070105;28;20488;-74
2024/01/30 12:28:36;;;;;;;2.70;1.50;;;13.20;66.50;;;;;;5069651;28;20496;-76
2024/01/30 12:31:03;;;;;;;5.07;2.30;;;13.10;66.30;;;;;;5051945;28;20428;-76
2024/01/30 12:33:29;;;;;;;2.63;2.30;;;12.90;66.10;;;;;;5069664;28;20206;-75
2024/01/30 12:35:56;;;;;;;2.03;1.70;;;13.00;66.90;;;;;;5069765;28;20423;-75
2024/01/30 12:38:23;;;;;;;3.97;1.97;;;13.10;67.90;;;;;;5069391;28;20452;-76
2024/01/30 12:40:49;;;;;;;2.90;2.43;;;13.10;68.90;;;;;;5069614;28;20424;-75
2024/01/30 12:43:16;;;;;;;2.53;2.00;;;12.90;67.30;;;;;;5069368;28;20430;-76
2024/01/30 12:45:41;;;;;;;3.03;2.10;;;13.00;68.40;;;;;;5069185;28;20179;-76